createdAt,value
2023-05-12T00:00:49.613Z,101407.55
2023-05-12T00:03:21.770Z,101409.40
2023-05-12T00:05:54.429Z,101404.20
2023-05-12T00:08:26.668Z,101403.06
2023-05-12T00:10:58.992Z,101401.11
2023-05-12T00:13:31.350Z,101396.62
2023-05-12T00:16:03.672Z,101399.48
2023-05-12T00:18:36.129Z,101399.26
2023-05-12T00:21:08.945Z,101398.77
2023-05-12T00:23:41.361Z,101403.30
2023-05-12T00:26:13.562Z,101403.52
2023-05-12T00:28:47.624Z,101409.55
2023-05-12T00:31:20.000Z,101410.48
2023-05-12T00:33:52.163Z,101407.02
2023-05-12T00:36:24.764Z,101405.83
2023-05-12T00:38:57.353Z,101401.52
2023-05-12T00:41:29.628Z,101398.88
2023-05-12T00:44:01.922Z,101399.83
2023-05-12T00:46:34.825Z,101403.14
2023-05-12T00:49:08.537Z,101406.60
2023-05-12T00:51:41.485Z,101408.95
2023-05-12T00:54:13.743Z,101410.61
2023-05-12T00:56:45.922Z,101406.83
2023-05-12T00:59:18.274Z,101407.48
2023-05-12T01:01:51.815Z,101406.48
2023-05-12T01:04:24.665Z,101407.05
2023-05-12T01:07:01.239Z,101411.58
2023-05-12T01:09:33.594Z,101411.61
2023-05-12T01:12:06.308Z,101414.58
2023-05-12T01:14:38.596Z,101418.64
2023-05-12T01:17:14.681Z,101417.77
2023-05-12T01:19:51.617Z,101417.57
2023-05-12T01:22:24.914Z,101411.39
2023-05-12T01:24:59.512Z,101415.31
2023-05-12T01:27:32.801Z,101417.57
2023-05-12T01:30:07.914Z,101421.47
2023-05-12T01:32:41.914Z,101417.89
2023-05-12T01:35:14.549Z,101416.44
2023-05-12T01:37:46.953Z,101421.10
2023-05-12T01:40:19.819Z,101419.02
2023-05-12T01:42:52.892Z,101412.81
2023-05-12T01:45:25.032Z,101413.60
2023-05-12T01:47:57.266Z,101416.64
2023-05-12T01:50:29.618Z,101408.56
2023-05-12T01:53:01.942Z,101411.11
2023-05-12T01:55:34.713Z,101409.36
2023-05-12T01:58:06.846Z,101409.05
2023-05-12T02:00:39.184Z,101408.69
2023-05-12T02:03:11.591Z,101410.30
2023-05-12T02:05:43.997Z,101409.42
2023-05-12T02:08:16.205Z,101410.16
2023-05-12T02:10:48.418Z,101406.11
2023-05-12T02:13:20.635Z,101404.89
2023-05-12T02:15:52.869Z,101406.41
2023-05-12T02:18:25.232Z,101403.36
2023-05-12T02:20:57.395Z,101401.61
2023-05-12T02:23:29.605Z,101405.19
2023-05-12T02:26:01.783Z,101401.92
2023-05-12T02:28:34.166Z,101406.08
2023-05-12T02:31:06.449Z,101408.45
2023-05-12T02:33:38.835Z,101411.48
2023-05-12T02:36:11.932Z,101412.50
2023-05-12T02:38:44.197Z,101405.29
2023-05-12T02:41:16.287Z,101412.30
2023-05-12T02:43:48.701Z,101416.95
2023-05-12T02:46:20.864Z,101424.46
2023-05-12T02:48:53.077Z,101422.38
2023-05-12T02:51:25.262Z,101425.21
2023-05-12T02:53:57.617Z,101425.99
2023-05-12T02:56:31.347Z,101429.28
2023-05-12T02:59:04.485Z,101433.43
2023-05-12T03:01:36.750Z,101437.14
2023-05-12T03:04:08.894Z,101438.80
2023-05-12T03:06:41.136Z,101441.51
2023-05-12T03:09:13.583Z,101443.45
2023-05-12T03:11:45.971Z,101442.96
2023-05-12T03:14:18.242Z,101444.27
2023-05-12T03:16:50.448Z,101441.39
2023-05-12T03:19:22.566Z,101440.95
2023-05-12T03:21:55.017Z,101442.55
2023-05-12T03:24:27.319Z,101443.08
2023-05-12T03:26:59.688Z,101444.90
2023-05-12T03:29:31.940Z,101448.77
2023-05-12T03:32:04.133Z,101449.71
2023-05-12T03:34:36.572Z,101452.04
2023-05-12T03:37:09.268Z,101450.15
2023-05-12T03:39:41.398Z,101453.88
2023-05-12T03:42:14.643Z,101457.59
2023-05-12T03:44:46.826Z,101462.10
2023-05-12T03:47:19.261Z,101458.84
2023-05-12T03:49:51.877Z,101460.20
2023-05-12T03:52:24.154Z,101463.04
2023-05-12T03:54:56.595Z,101464.20
2023-05-12T03:57:28.801Z,101467.20
2023-05-12T04:00:01.091Z,101463.95
2023-05-12T04:02:33.713Z,101459.90
2023-05-12T04:05:08.315Z,101468.34
2023-05-12T04:07:40.527Z,101467.60
2023-05-12T04:10:13.480Z,101472.96
2023-05-12T04:12:45.822Z,101475.52
2023-05-12T04:15:18.700Z,101477.98
2023-05-12T04:17:51.202Z,101477.35
2023-05-12T04:20:24.033Z,101474.46
2023-05-12T04:22:56.811Z,101476.43
2023-05-12T04:25:29.020Z,101473.56
2023-05-12T04:28:01.206Z,101474.27
2023-05-12T04:30:33.411Z,101474.60
2023-05-12T04:33:05.772Z,101474.61
2023-05-12T04:35:38.286Z,101475.88
2023-05-12T04:38:10.630Z,101472.13
2023-05-12T04:40:42.841Z,101470.59
2023-05-12T04:45:51.494Z,101467.98
2023-05-12T04:48:23.801Z,101468.66
2023-05-12T04:50:56.110Z,101472.22
2023-05-12T04:53:28.428Z,101469.79
2023-05-12T04:56:00.788Z,101478.17
2023-05-12T04:58:33.127Z,101478.34
2023-05-12T05:01:05.502Z,101481.02
2023-05-12T05:03:37.969Z,101478.85
2023-05-12T05:06:10.520Z,101482.25
2023-05-12T05:08:42.835Z,101482.67
2023-05-12T05:11:15.117Z,101484.33
2023-05-12T05:13:47.269Z,101486.41
2023-05-12T05:16:19.582Z,101481.29
2023-05-12T05:18:52.207Z,101484.05
2023-05-12T05:21:24.595Z,101483.27
2023-05-12T05:23:56.872Z,101487.67
2023-05-12T05:26:29.218Z,101492.22
2023-05-12T05:29:01.414Z,101494.25
2023-05-12T05:31:34.007Z,101494.83
2023-05-12T05:34:06.249Z,101495.65
2023-05-12T05:36:38.552Z,101499.85
2023-05-12T05:39:11.292Z,101500.63
2023-05-12T05:41:43.413Z,101505.02
2023-05-12T05:44:15.980Z,101508.35
2023-05-12T05:46:48.397Z,101504.29
2023-05-12T05:49:20.664Z,101501.70
2023-05-12T05:51:52.870Z,101505.77
2023-05-12T05:54:26.110Z,101504.35
2023-05-12T05:57:00.830Z,101505.83
2023-05-12T05:59:33.420Z,101503.91
2023-05-12T06:02:05.842Z,101503.28
2023-05-12T06:04:38.269Z,101504.55
2023-05-12T06:07:10.700Z,101507.67
2023-05-12T06:09:43.026Z,101510.58
2023-05-12T06:12:15.400Z,101514.16
2023-05-12T06:14:47.571Z,101513.27
2023-05-12T06:17:19.917Z,101514.81
2023-05-12T06:19:52.397Z,101514.99
2023-05-12T06:22:25.150Z,101514.34
2023-05-12T06:24:57.403Z,101515.15
2023-05-12T06:27:29.860Z,101514.95
2023-05-12T06:30:02.056Z,101523.76
2023-05-12T06:32:34.449Z,101521.73
2023-05-12T06:35:07.735Z,101524.59
2023-05-12T06:37:40.040Z,101527.81
2023-05-12T06:40:13.115Z,101525.42
2023-05-12T06:42:45.623Z,101527.27
2023-05-12T06:45:17.938Z,101531.08
2023-05-12T06:47:50.456Z,101531.56
2023-05-12T06:50:22.924Z,101530.69
2023-05-12T06:52:55.199Z,101534.32
2023-05-12T06:55:27.639Z,101539.17
2023-05-12T06:57:59.837Z,101533.30
2023-05-12T07:00:32.022Z,101535.39
2023-05-12T07:03:04.317Z,101528.20
2023-05-12T07:05:36.657Z,101534.16
2023-05-12T07:08:08.983Z,101538.48
2023-05-12T07:10:41.318Z,101537.05
2023-05-12T07:13:13.460Z,101537.80
2023-05-12T07:15:45.744Z,101533.13
2023-05-12T07:18:18.134Z,101533.09
2023-05-12T07:20:50.571Z,101534.91
2023-05-12T07:23:22.900Z,101533.72
2023-05-12T07:25:55.433Z,101534.98
2023-05-12T07:28:27.845Z,101536.80
2023-05-12T07:31:00.022Z,101535.46
2023-05-12T07:33:32.784Z,101542.27
2023-05-12T07:36:05.923Z,101542.41
2023-05-12T07:38:38.430Z,101538.10
2023-05-12T07:41:10.735Z,101537.94
2023-05-12T07:43:42.753Z,101540.95
2023-05-12T07:46:15.067Z,101542.46
2023-05-12T07:48:47.387Z,101537.93
2023-05-12T07:51:19.712Z,101535.15
2023-05-12T07:53:51.924Z,101535.15
2023-05-12T07:56:24.173Z,101531.02
2023-05-12T07:58:56.481Z,101529.73
2023-05-12T08:01:28.739Z,101528.68
2023-05-12T08:04:01.239Z,101529.88
2023-05-12T08:06:34.379Z,101529.40
2023-05-12T08:09:06.915Z,101531.29
2023-05-12T08:11:39.121Z,101534.30
2023-05-12T08:14:11.405Z,101529.63
2023-05-12T08:16:45.620Z,101529.63
2023-05-12T08:19:17.902Z,101530.30
2023-05-12T08:21:50.104Z,101529.40
2023-05-12T08:24:22.670Z,101528.45
2023-05-12T08:26:54.897Z,101527.91
2023-05-12T08:29:28.288Z,101528.90
2023-05-12T08:32:01.230Z,101526.53
2023-05-12T08:34:34.031Z,101530.53
2023-05-12T08:37:07.763Z,101528.89
2023-05-12T08:39:40.216Z,101529.27
2023-05-12T08:42:31.829Z,101530.45
2023-05-12T08:45:04.584Z,101530.52
2023-05-12T08:47:38.788Z,101532.23
2023-05-12T08:50:13.304Z,101531.04
2023-05-12T08:52:45.887Z,101525.19
2023-05-12T08:55:19.258Z,101528.38
2023-05-12T08:57:51.745Z,101525.55
2023-05-12T09:00:25.709Z,101524.21
2023-05-12T09:02:58.909Z,101522.30
2023-05-12T09:05:33.292Z,101522.80
2023-05-12T09:08:06.748Z,101521.13
2023-05-12T09:10:39.697Z,101517.75
2023-05-12T09:13:18.813Z,101518.04
2023-05-12T09:15:53.981Z,101513.67
2023-05-12T09:18:26.324Z,101514.89
2023-05-12T09:20:58.501Z,101516.91
2023-05-12T09:23:30.775Z,101515.09
2023-05-12T09:26:04.268Z,101515.29
2023-05-12T09:28:40.129Z,101509.13
2023-05-12T09:31:20.370Z,101511.22
2023-05-12T09:33:53.479Z,101510.77
2023-05-12T09:36:27.166Z,101508.04
2023-05-12T09:39:07.372Z,101501.33
2023-05-12T09:41:41.023Z,101502.93
2023-05-12T09:44:16.754Z,101501.52
2023-05-12T09:46:49.280Z,101499.05
2023-05-12T09:49:26.090Z,101499.92
2023-05-12T09:51:59.712Z,101497.20
2023-05-12T09:54:33.756Z,101499.71
2023-05-12T09:57:07.474Z,101497.27
2023-05-12T09:59:40.989Z,101500.36
2023-05-12T10:02:18.275Z,101500.62
2023-05-12T10:04:58.146Z,101506.59
2023-05-12T10:07:31.472Z,101506.34
2023-05-12T10:10:07.549Z,101496.13
2023-05-12T10:12:40.323Z,101504.94
2023-05-12T10:15:14.624Z,101504.76
2023-05-12T10:17:47.689Z,101501.48
2023-05-12T10:20:20.950Z,101497.74
2023-05-12T10:22:55.973Z,101495.59
2023-05-12T10:25:28.272Z,101494.10
2023-05-12T10:28:02.455Z,101494.80
2023-05-12T10:30:35.113Z,101492.67
2023-05-12T10:33:09.363Z,101494.52
2023-05-12T10:35:46.193Z,101492.94
2023-05-12T10:38:20.266Z,101494.98
2023-05-12T10:41:01.296Z,101496.09
2023-05-12T10:43:43.669Z,101496.08
2023-05-12T10:46:21.798Z,101495.29
2023-05-12T10:48:57.006Z,101495.01
2023-05-12T10:51:31.152Z,101490.95
2023-05-12T10:54:05.015Z,101489.98
2023-05-12T10:56:46.419Z,101487.29
2023-05-12T10:59:21.918Z,101491.91
2023-05-12T11:02:05.564Z,101492.36
2023-05-12T11:04:44.872Z,101492.76
2023-05-12T11:07:22.189Z,101492.85
2023-05-12T11:09:59.500Z,101490.73
2023-05-12T11:12:35.487Z,101492.29
2023-05-12T11:15:10.139Z,101496.17
2023-05-12T11:17:42.945Z,101494.70
2023-05-12T11:20:25.223Z,101487.38
2023-05-12T11:22:57.637Z,101484.27
2023-05-12T11:25:31.337Z,101478.09
2023-05-12T11:28:04.178Z,101477.71
2023-05-12T11:30:36.806Z,101485.58
2023-05-12T11:33:09.266Z,101478.58
2023-05-12T11:35:41.688Z,101478.52
2023-05-12T11:38:20.066Z,101469.34
2023-05-12T11:40:52.283Z,101469.48
2023-05-12T11:43:24.457Z,101470.02
2023-05-12T11:45:56.577Z,101470.40
2023-05-12T11:48:36.176Z,101467.88
2023-05-12T11:51:09.171Z,101470.13
2023-05-12T11:53:44.277Z,101473.77
2023-05-12T11:56:23.500Z,101472.36
2023-05-12T11:58:59.755Z,101467.31
2023-05-12T12:01:33.808Z,101468.23
2023-05-12T12:04:06.329Z,101469.31
2023-05-12T12:06:46.565Z,101465.02
2023-05-12T12:09:18.730Z,101465.17
2023-05-12T12:11:50.874Z,101457.71
2023-05-12T12:14:23.184Z,101460.69
2023-05-12T12:16:55.593Z,101461.64
2023-05-12T12:19:28.124Z,101462.71
2023-05-12T12:22:00.794Z,101458.42
2023-05-12T12:24:33.367Z,101460.11
2023-05-12T12:27:06.050Z,101460.48
2023-05-12T12:29:38.323Z,101462.46
2023-05-12T12:32:11.089Z,101460.84
2023-05-12T12:34:45.112Z,101456.02
2023-05-12T12:37:17.719Z,101449.31
2023-05-12T12:39:49.890Z,101445.67
2023-05-12T12:42:22.453Z,101439.02
2023-05-12T12:44:54.690Z,101436.26
2023-05-12T12:47:27.212Z,101438.21
2023-05-12T12:49:59.904Z,101435.61
2023-05-12T12:52:33.018Z,101435.52
2023-05-12T12:55:05.645Z,101433.55
2023-05-12T12:57:37.919Z,101435.20
2023-05-12T13:00:13.611Z,101430.20
2023-05-12T13:02:45.029Z,101432.77
2023-05-12T13:05:17.858Z,101431.39
2023-05-12T13:07:51.523Z,101429.05
2023-05-12T13:10:25.678Z,101422.60
2023-05-12T13:12:57.829Z,101421.83
2023-05-12T13:15:32.434Z,101417.16
2023-05-12T13:18:04.702Z,101417.60
2023-05-12T13:20:37.049Z,101416.92
2023-05-12T13:23:09.261Z,101416.15
2023-05-12T13:25:41.679Z,101414.73
2023-05-12T13:28:13.904Z,101415.67
2023-05-12T13:30:46.762Z,101413.52
2023-05-12T13:33:18.989Z,101411.90
2023-05-12T13:35:51.178Z,101411.65
2023-05-12T13:38:23.489Z,101409.27
2023-05-12T13:40:55.898Z,101406.55
2023-05-12T13:43:28.229Z,101404.53
2023-05-12T13:46:00.463Z,101406.08
2023-05-12T13:48:32.695Z,101402.92
2023-05-12T13:51:05.061Z,101399.68
2023-05-12T13:53:39.729Z,101407.48
2023-05-12T13:56:12.277Z,101407.67
2023-05-12T13:58:44.528Z,101404.72
2023-05-12T14:01:16.864Z,101409.58
2023-05-12T14:03:49.242Z,101410.55
2023-05-12T14:06:21.725Z,101409.60
2023-05-12T14:08:53.879Z,101404.25
2023-05-12T14:11:26.329Z,101406.03
2023-05-12T14:14:00.476Z,101405.55
2023-05-12T14:16:32.711Z,101404.18
2023-05-12T14:19:04.950Z,101406.11
2023-05-12T14:21:37.246Z,101406.97
2023-05-12T14:24:10.664Z,101411.16
2023-05-12T14:26:42.898Z,101411.84
2023-05-12T14:29:15.225Z,101407.93
2023-05-12T14:31:47.444Z,101404.61
2023-05-12T14:34:20.532Z,101401.63
2023-05-12T14:36:52.823Z,101401.92
2023-05-12T14:39:25.261Z,101405.99
2023-05-12T14:41:57.491Z,101408.91
2023-05-12T14:44:29.655Z,101406.27
2023-05-12T14:47:01.920Z,101401.72
2023-05-12T14:49:34.172Z,101402.60
2023-05-12T14:52:06.849Z,101400.83
2023-05-12T14:54:39.083Z,101403.53
2023-05-12T14:57:13.641Z,101398.09
2023-05-12T14:59:46.007Z,101401.48
2023-05-12T15:02:18.148Z,101401.44
2023-05-12T15:04:51.489Z,101401.06
2023-05-12T15:07:23.672Z,101399.29
2023-05-12T15:09:55.928Z,101395.73
2023-05-12T15:12:28.454Z,101401.90
2023-05-12T15:15:02.425Z,101395.80
2023-05-12T15:17:34.813Z,101392.39
2023-05-12T15:20:09.914Z,101382.46
2023-05-12T15:22:42.272Z,101387.83
2023-05-12T15:25:14.822Z,101387.64
2023-05-12T15:27:47.058Z,101387.24
2023-05-12T15:30:19.811Z,101386.73
2023-05-12T15:32:52.001Z,101388.25
2023-05-12T15:35:24.180Z,101382.61
2023-05-12T15:37:56.509Z,101385.13
2023-05-12T15:40:30.721Z,101389.27
2023-05-12T15:43:03.148Z,101389.56
2023-05-12T15:45:37.548Z,101382.38
2023-05-12T15:48:09.999Z,101383.33
2023-05-12T15:50:42.150Z,101388.16
2023-05-12T15:53:14.230Z,101382.95
2023-05-12T15:55:46.824Z,101379.88
2023-05-12T15:58:19.022Z,101377.83
2023-05-12T16:00:51.270Z,101378.94
2023-05-12T16:03:23.793Z,101383.73
2023-05-12T16:05:56.357Z,101386.16
2023-05-12T16:08:28.587Z,101389.16
2023-05-12T16:11:00.889Z,101391.88
2023-05-12T16:13:33.192Z,101389.67
2023-05-12T16:16:06.404Z,101393.75
2023-05-12T16:18:40.112Z,101391.06
2023-05-12T16:21:12.854Z,101395.70
2023-05-12T16:23:44.990Z,101392.20
2023-05-12T16:26:17.149Z,101394.97
2023-05-12T16:28:49.744Z,101394.86
2023-05-12T16:31:21.862Z,101395.89
2023-05-12T16:33:54.027Z,101399.33
2023-05-12T16:36:26.416Z,101398.92
2023-05-12T16:38:59.582Z,101396.90
2023-05-12T16:41:32.022Z,101395.70
2023-05-12T16:44:04.267Z,101394.98
2023-05-12T16:46:37.707Z,101397.65
2023-05-12T16:49:11.097Z,101398.13
2023-05-12T16:51:43.411Z,101396.69
2023-05-12T16:54:15.931Z,101399.02
2023-05-12T16:56:48.534Z,101393.45
2023-05-12T16:59:20.960Z,101391.36
2023-05-12T17:01:53.209Z,101393.36
2023-05-12T17:04:25.565Z,101393.83
2023-05-12T17:06:57.983Z,101394.11
2023-05-12T17:09:30.347Z,101396.32
2023-05-12T17:12:04.562Z,101395.08
2023-05-12T17:14:37.350Z,101398.23
2023-05-12T17:17:09.875Z,101397.57
2023-05-12T17:19:43.431Z,101396.77
2023-05-12T17:22:16.060Z,101399.40
2023-05-12T17:24:48.154Z,101399.17
2023-05-12T17:27:20.774Z,101398.23
2023-05-12T17:29:52.999Z,101400.70
2023-05-12T17:32:25.292Z,101397.98
2023-05-12T17:34:58.146Z,101401.66
2023-05-12T17:37:30.583Z,101404.80
2023-05-12T17:40:04.628Z,101402.04
2023-05-12T17:42:37.316Z,101403.02
2023-05-12T17:45:13.868Z,101404.30
2023-05-12T17:47:48.107Z,101408.48
2023-05-12T17:50:20.522Z,101408.80
2023-05-12T17:52:54.578Z,101407.91
2023-05-12T17:55:26.870Z,101411.05
2023-05-12T17:57:59.007Z,101412.59
2023-05-12T18:00:31.324Z,101415.29
2023-05-12T18:03:03.765Z,101411.54
2023-05-12T18:05:36.702Z,101410.08
2023-05-12T18:08:09.302Z,101412.48
2023-05-12T18:10:41.601Z,101412.84
2023-05-12T18:13:14.802Z,101413.52
2023-05-12T18:15:46.931Z,101413.10
2023-05-12T18:18:19.260Z,101412.71
2023-05-12T18:20:51.496Z,101415.92
2023-05-12T18:23:23.848Z,101415.02
2023-05-12T18:25:56.543Z,101415.83
2023-05-12T18:28:29.239Z,101419.67
2023-05-12T18:31:09.301Z,101420.90
2023-05-12T18:33:50.874Z,101423.95
2023-05-12T18:36:23.826Z,101429.21
2023-05-12T18:38:56.334Z,101429.46
2023-05-12T18:41:29.009Z,101432.07
2023-05-12T18:44:01.233Z,101431.34
2023-05-12T18:46:33.428Z,101433.72
2023-05-12T18:49:05.799Z,101433.54
2023-05-12T18:51:38.238Z,101437.29
2023-05-12T18:54:10.632Z,101440.05
2023-05-12T18:56:42.757Z,101437.06
2023-05-12T18:59:15.084Z,101443.13
2023-05-12T19:01:48.966Z,101443.23
2023-05-12T19:04:21.993Z,101445.35
2023-05-12T19:06:54.126Z,101441.30
2023-05-12T19:09:26.292Z,101442.77
2023-05-12T19:11:58.617Z,101445.80
2023-05-12T19:14:30.834Z,101444.89
2023-05-12T19:17:03.008Z,101446.13
2023-05-12T19:19:35.262Z,101446.05
2023-05-12T19:22:07.822Z,101446.20
2023-05-12T19:24:40.080Z,101443.38
2023-05-12T19:27:12.270Z,101443.65
2023-05-12T19:29:44.564Z,101441.76
2023-05-12T19:32:18.246Z,101440.14
2023-05-12T19:34:51.851Z,101441.15
2023-05-12T19:37:24.198Z,101439.88
2023-05-12T19:39:56.788Z,101440.61
2023-05-12T19:42:28.895Z,101442.88
2023-05-12T19:45:01.065Z,101439.52
2023-05-12T19:47:33.556Z,101435.16
2023-05-12T19:50:07.740Z,101443.97
2023-05-12T19:52:40.337Z,101443.14
2023-05-12T19:55:12.944Z,101442.35
2023-05-12T19:57:45.490Z,101443.86
2023-05-12T20:00:19.154Z,101441.02
2023-05-12T20:02:51.635Z,101442.91
2023-05-12T20:05:24.526Z,101441.66
2023-05-12T20:07:57.199Z,101442.46
2023-05-12T20:10:29.412Z,101441.70
2023-05-12T20:13:03.579Z,101438.79
2023-05-12T20:15:36.013Z,101436.58
2023-05-12T20:18:08.714Z,101433.88
2023-05-12T20:20:41.043Z,101435.16
2023-05-12T20:23:13.254Z,101434.85
2023-05-12T20:25:45.886Z,101435.57
2023-05-12T20:28:18.186Z,101441.37
2023-05-12T20:30:50.841Z,101438.67
2023-05-12T20:33:23.069Z,101441.70
2023-05-12T20:35:55.552Z,101442.58
2023-05-12T20:38:28.038Z,101440.38
2023-05-12T20:41:06.580Z,101439.79
2023-05-12T20:43:40.145Z,101439.06
2023-05-12T20:46:12.756Z,101434.77
2023-05-12T20:48:45.141Z,101429.70
2023-05-12T20:51:17.320Z,101430.02
2023-05-12T20:53:49.520Z,101432.20
2023-05-12T20:56:23.321Z,101435.89
2023-05-12T20:58:57.448Z,101437.23
2023-05-12T21:01:29.972Z,101437.40
2023-05-12T21:04:02.341Z,101436.70
2023-05-12T21:06:35.972Z,101438.22
2023-05-12T21:09:08.214Z,101433.13
2023-05-12T21:11:40.537Z,101433.55
2023-05-12T21:14:12.649Z,101430.73
2023-05-12T21:16:45.176Z,101432.94
2023-05-12T21:19:17.515Z,101432.77
2023-05-12T21:21:49.822Z,101432.14
2023-05-12T21:24:22.133Z,101429.81
2023-05-12T21:26:54.299Z,101426.38
2023-05-12T21:29:26.545Z,101423.04
2023-05-12T21:31:58.737Z,101416.39
2023-05-12T21:34:31.550Z,101418.98
2023-05-12T21:37:03.718Z,101418.77
2023-05-12T21:39:35.841Z,101420.20
2023-05-12T21:42:09.030Z,101416.44
2023-05-12T21:44:41.246Z,101428.59
2023-05-12T21:47:13.408Z,101424.79
2023-05-12T21:49:46.053Z,101422.49
2023-05-12T21:52:18.401Z,101421.26
2023-05-12T21:54:50.664Z,101421.58
2023-05-12T21:57:22.828Z,101422.88
2023-05-12T21:59:56.365Z,101425.51
2023-05-12T22:02:28.584Z,101422.27
2023-05-12T22:05:00.936Z,101421.91
2023-05-12T22:07:33.218Z,101418.46
2023-05-12T22:10:06.656Z,101415.89
2023-05-12T22:12:38.756Z,101417.73
2023-05-12T22:15:12.237Z,101417.27
2023-05-12T22:17:45.644Z,101421.20
2023-05-12T22:20:19.069Z,101424.50
2023-05-12T22:22:51.550Z,101427.04
2023-05-12T22:25:23.687Z,101428.84
2023-05-12T22:27:55.810Z,101425.57
2023-05-12T22:30:28.449Z,101424.34
2023-05-12T22:33:01.247Z,101424.09
2023-05-12T22:35:33.502Z,101426.70
2023-05-12T22:38:05.808Z,101424.30
2023-05-12T22:40:38.222Z,101425.48
2023-05-12T22:43:12.850Z,101421.61
2023-05-12T22:45:45.037Z,101423.05
2023-05-12T22:48:17.331Z,101424.33
2023-05-12T22:50:49.629Z,101422.14
2023-05-12T22:53:21.868Z,101430.39
2023-05-12T22:55:54.037Z,101429.80
2023-05-12T22:58:26.163Z,101432.46
2023-05-12T23:00:58.517Z,101430.02
2023-05-12T23:03:32.632Z,101429.71
2023-05-12T23:06:04.903Z,101429.00
2023-05-12T23:08:37.086Z,101425.35
2023-05-12T23:11:11.993Z,101421.02
2023-05-12T23:13:44.263Z,101422.57
2023-05-12T23:16:16.713Z,101421.04
2023-05-12T23:18:48.938Z,101413.48
2023-05-12T23:21:21.327Z,101412.66
2023-05-12T23:23:53.670Z,101406.66
2023-05-12T23:26:25.974Z,101403.95
2023-05-12T23:28:58.253Z,101398.87
2023-05-12T23:31:30.650Z,101400.63
2023-05-12T23:34:02.850Z,101396.49
2023-05-12T23:36:34.773Z,101394.68
2023-05-12T23:39:07.068Z,101393.41
2023-05-12T23:41:39.248Z,101393.13
2023-05-12T23:44:11.322Z,101396.17
2023-05-12T23:46:43.637Z,101397.31
2023-05-12T23:49:16.199Z,101386.93
2023-05-12T23:51:48.480Z,101391.61
2023-05-12T23:54:20.669Z,101391.40
2023-05-12T23:56:52.986Z,101389.70
2023-05-12T23:59:25.687Z,101391.16
